Historyczne dane pomiarowe

Dodano dane terminowe – wersja testowa.

Dane z okresu 1951-2018

Wersja bazy: 1.29 [2019-01-10, lista zmian], aktualizacja planowana na 2019-02-07

Dane meteo z obszaru Polski uzyskane na podstawie danych udostępnionych przez Instytut Meteorologii i Gospodarki Wodnej – Państwowy Instytut Badawczy.

 

Wybierz Datę:    

       

TemperaturaWilgotnośćWiatrCiśnienieOpadyŚniegCzas trwania zjawisk
 Stacja t tx tn tng RH VA  wxwx mslp ppp RRR   cm mm wxwxwxwxwxwxwx
1980-12-13 1.6 3.7 0.1- 83.0- 4.3 2.3---- 0.1-- 9---------
1980-12-14 0.5 3.5 -0.7- 87.0- 7.3 4.7---- 1.7-- 6---------
1980-12-15 2.3 3.3 0.3- 79.5- 7.3 8.3---- 0.1-- 6---------
1980-12-16 1.4 3.3 -1.2- 85.5- 6.3 1.0---- 0.0-- 4---------
1980-12-17 -1.5 1.4 -4.4- 82.3- 6.3 1.0---- 0.0------------
1980-12-18 -4.6 0.6-12.0- 81.0- 3.3 1.0---- 0.1------------
1980-12-19 1.2 3.4 -1.8- 83.5- 6.3 0.7---- 0.0------------
1980-12-20 0.8 5.9 -4.6- 81.8- 7.0 0.3---- 2.6------------
1980-12-21 2.3 4.9 -0.5- 85.0- 6.0 1.7---- 0.0------------
1980-12-22 -1.0 1.1 -5.8- 90.8- 8.0 1.0---- 0.0------------
1980-12-23 -1.2 1.3 -4.2- 88.0- 5.0 0.3---- 0.0------------
1980-12-24 1.5 5.6 -5.6- 77.5- 7.3 1.7---- 0.0------------
1980-12-25 1.2 1.5 -0.2- 80.3- 8.0 2.0---- 0.0------------
1980-12-26 2.5 4.2 1.5- 84.3- 7.3 0.7---- 28.8------------
1980-12-27 -0.3 1.5 -0.7- 91.0- 8.0 0.3---- 10.7-- 29---------
1980-12-28 -1.6 -0.1 -3.4- 91.8- 8.0 2.0---- 0.6-- 37---------
1980-12-29 -4.5 -0.7-10.1- 83.8- 6.7 0.3---- 0.0-- 36---------
1980-12-30 -2.3 -1.1 -5.0- 82.8- 7.0 2.7---- 0.0-- 32---------
1980-12-31 -1.5 -0.4 -2.1- 83.8- 5.0 6.3---- 0.0-- 30---------
1981-01-01 -1.4 2.0 -2.2- 85.5- 6.7 8.3---- 1.1-- 19---------
1981-01-02 -1.8 -0.7 -2.8- 78.3- 8.0 4.0---- 1.4-- 18---------
1981-01-03 -1.2 0.2 -3.5- 80.8- 8.0 6.7---- 2.5-- 18---------
1981-01-04 0.9 2.5 -0.2- 83.0- 6.7 3.7---- 8.7-- 15---------
1981-01-05 -4.0 -0.2 -7.1- 86.3- 8.0 2.0---- 5.5-- 25---------
1981-01-06 -8.2 -3.4-10.7- 83.3- 8.0 1.7---- 0.5-- 36---------
1981-01-07-14.0 -9.2-21.9- 84.5- 7.3 0.7---- 0.2-- 37---------
1981-01-08-12.2 -9.2-15.1- 82.5- 6.3 0.7---- 0.0-- 38---------
1981-01-09-26.7-13.2-35.0- 75.3- 0.0 0.0---- 0.0-- 38---------
1981-01-10-26.3-10.4-35.4- 73.5- 0.0 0.0---- 0.0-- 37---------
1981-01-11-19.1 -5.4-32.9- 76.3- 6.7 0.0---- 0.0-- 36---------
369.3 ms

 

Źródłem pochodzenia danych jest Instytut Meteorologii i Gospodarki Wodnej – Państwowy Instytut Badawczy. Dane Instytutu Meteorologii i Gospodarki Wodnej – Państwowego Instytutu Badawczego zostały przetworzone.

Dane źródłowe można odnaleźć na stronie https://dane.imgw.pl